sensor_id;sensor_type;location;lat;lon;timestamp;temperature;humidity
33863;DHT22;20158;51.436;-2.742;2023-04-25T00:01:46;10.70;60.30
33863;DHT22;20158;51.436;-2.742;2023-04-25T00:04:12;10.70;60.90
33863;DHT22;20158;51.436;-2.742;2023-04-25T00:06:38;10.70;60.30
33863;DHT22;20158;51.436;-2.742;2023-04-25T00:09:05;10.70;60.40
33863;DHT22;20158;51.436;-2.742;2023-04-25T00:11:35;10.70;60.40
33863;DHT22;20158;51.436;-2.742;2023-04-25T00:14:02;10.70;60.30
33863;DHT22;20158;51.436;-2.742;2023-04-25T00:16:29;10.60;60.10
33863;DHT22;20158;51.436;-2.742;2023-04-25T00:18:59;10.60;60.20
33863;DHT22;20158;51.436;-2.742;2023-04-25T00:21:25;10.60;60.20
33863;DHT22;20158;51.436;-2.742;2023-04-25T00:23:53;10.60;60.20
33863;DHT22;20158;51.436;-2.742;2023-04-25T00:26:19;10.60;60.20
33863;DHT22;20158;51.436;-2.742;2023-04-25T00:28:47;10.60;60.20
33863;DHT22;20158;51.436;-2.742;2023-04-25T00:31:13;10.60;60.20
33863;DHT22;20158;51.436;-2.742;2023-04-25T00:33:39;10.60;60.30
33863;DHT22;20158;51.436;-2.742;2023-04-25T00:36:06;10.60;60.20
33863;DHT22;20158;51.436;-2.742;2023-04-25T00:38:32;10.60;60.30
33863;DHT22;20158;51.436;-2.742;2023-04-25T00:40:58;10.60;60.30
33863;DHT22;20158;51.436;-2.742;2023-04-25T00:43:26;10.50;60.10
33863;DHT22;20158;51.436;-2.742;2023-04-25T00:45:52;10.50;60.10
33863;DHT22;20158;51.436;-2.742;2023-04-25T00:48:21;10.60;60.30
33863;DHT22;20158;51.436;-2.742;2023-04-25T00:50:57;10.50;60.10
33863;DHT22;20158;51.436;-2.742;2023-04-25T00:53:24;10.50;60.10
33863;DHT22;20158;51.436;-2.742;2023-04-25T00:55:51;10.50;60.10
33863;DHT22;20158;51.436;-2.742;2023-04-25T00:58:18;10.50;60.10
33863;DHT22;20158;51.436;-2.742;2023-04-25T01:00:45;10.50;60.10
33863;DHT22;20158;51.436;-2.742;2023-04-25T01:03:13;10.40;60.00
33863;DHT22;20158;51.436;-2.742;2023-04-25T01:05:40;10.40;60.00
33863;DHT22;20158;51.436;-2.742;2023-04-25T01:08:07;10.40;60.00
33863;DHT22;20158;51.436;-2.742;2023-04-25T01:10:33;10.40;60.10
33863;DHT22;20158;51.436;-2.742;2023-04-25T01:12:59;10.40;60.10
33863;DHT22;20158;51.436;-2.742;2023-04-25T01:15:25;10.40;60.10
33863;DHT22;20158;51.436;-2.742;2023-04-25T01:17:52;10.40;60.10
33863;DHT22;20158;51.436;-2.742;2023-04-25T01:20:21;10.40;60.20
33863;DHT22;20158;51.436;-2.742;2023-04-25T01:22:50;10.40;60.30
33863;DHT22;20158;51.436;-2.742;2023-04-25T01:25:16;10.40;60.20
33863;DHT22;20158;51.436;-2.742;2023-04-25T01:27:43;10.40;60.30
33863;DHT22;20158;51.436;-2.742;2023-04-25T01:30:09;10.40;60.30
33863;DHT22;20158;51.436;-2.742;2023-04-25T01:32:36;10.40;60.30
33863;DHT22;20158;51.436;-2.742;2023-04-25T01:35:10;10.40;60.40
33863;DHT22;20158;51.436;-2.742;2023-04-25T01:37:41;10.40;60.40
33863;DHT22;20158;51.436;-2.742;2023-04-25T01:40:12;10.40;60.40
33863;DHT22;20158;51.436;-2.742;2023-04-25T01:42:39;10.30;60.50
33863;DHT22;20158;51.436;-2.742;2023-04-25T01:45:07;10.40;60.50
33863;DHT22;20158;51.436;-2.742;2023-04-25T01:47:34;10.30;60.30
33863;DHT22;20158;51.436;-2.742;2023-04-25T01:50:02;10.30;60.80
33863;DHT22;20158;51.436;-2.742;2023-04-25T01:52:29;10.30;60.30
33863;DHT22;20158;51.436;-2.742;2023-04-25T01:54:57;10.30;60.30
33863;DHT22;20158;51.436;-2.742;2023-04-25T01:57:26;10.30;60.30
33863;DHT22;20158;51.436;-2.742;2023-04-25T02:00:00;10.30;60.30
33863;DHT22;20158;51.436;-2.742;2023-04-25T02:02:38;10.30;60.40
33863;DHT22;20158;51.436;-2.742;2023-04-25T02:05:08;10.30;60.30
33863;DHT22;20158;51.436;-2.742;2023-04-25T02:07:38;10.30;60.30
33863;DHT22;20158;51.436;-2.742;2023-04-25T02:10:04;10.30;60.30
33863;DHT22;20158;51.436;-2.742;2023-04-25T02:12:35;10.20;60.20
33863;DHT22;20158;51.436;-2.742;2023-04-25T02:15:02;10.20;60.20
33863;DHT22;20158;51.436;-2.742;2023-04-25T02:17:38;10.20;60.30
33863;DHT22;20158;51.436;-2.742;2023-04-25T02:20:05;10.20;60.30
33863;DHT22;20158;51.436;-2.742;2023-04-25T02:22:31;10.20;60.30
33863;DHT22;20158;51.436;-2.742;2023-04-25T02:24:57;10.20;60.90
33863;DHT22;20158;51.436;-2.742;2023-04-25T02:27:23;10.10;60.20
33863;DHT22;20158;51.436;-2.742;2023-04-25T02:29:49;10.10;60.20
33863;DHT22;20158;51.436;-2.742;2023-04-25T02:32:15;10.10;60.20
33863;DHT22;20158;51.436;-2.742;2023-04-25T02:34:41;10.10;60.30
33863;DHT22;20158;51.436;-2.742;2023-04-25T02:37:07;10.10;60.30
33863;DHT22;20158;51.436;-2.742;2023-04-25T02:39:33;10.10;60.30
33863;DHT22;20158;51.436;-2.742;2023-04-25T02:41:59;10.10;60.40
33863;DHT22;20158;51.436;-2.742;2023-04-25T02:44:29;10.00;60.20
33863;DHT22;20158;51.436;-2.742;2023-04-25T02:46:55;10.00;60.20
33863;DHT22;20158;51.436;-2.742;2023-04-25T02:49:23;10.00;60.30
33863;DHT22;20158;51.436;-2.742;2023-04-25T02:51:49;10.00;60.30
33863;DHT22;20158;51.436;-2.742;2023-04-25T02:54:15;10.00;60.30
33863;DHT22;20158;51.436;-2.742;2023-04-25T02:56:44;9.90;60.20
33863;DHT22;20158;51.436;-2.742;2023-04-25T02:59:15;9.90;60.20
33863;DHT22;20158;51.436;-2.742;2023-04-25T03:01:41;9.90;60.20
33863;DHT22;20158;51.436;-2.742;2023-04-25T03:04:07;9.90;60.30
33863;DHT22;20158;51.436;-2.742;2023-04-25T03:06:32;9.80;60.10
33863;DHT22;20158;51.436;-2.742;2023-04-25T03:08:58;9.90;60.30
33863;DHT22;20158;51.436;-2.742;2023-04-25T03:11:25;9.80;60.20
33863;DHT22;20158;51.436;-2.742;2023-04-25T03:13:51;9.80;60.80
33863;DHT22;20158;51.436;-2.742;2023-04-25T03:16:17;9.70;60.10
33863;DHT22;20158;51.436;-2.742;2023-04-25T03:18:43;9.70;60.10
33863;DHT22;20158;51.436;-2.742;2023-04-25T03:21:09;9.70;60.20
33863;DHT22;20158;51.436;-2.742;2023-04-25T03:23:35;9.60;60.10
33863;DHT22;20158;51.436;-2.742;2023-04-25T03:26:00;9.60;60.20
33863;DHT22;20158;51.436;-2.742;2023-04-25T03:28:27;9.60;60.30
33863;DHT22;20158;51.436;-2.742;2023-04-25T03:30:55;9.50;60.20
33863;DHT22;20158;51.436;-2.742;2023-04-25T03:33:21;9.50;60.20
33863;DHT22;20158;51.436;-2.742;2023-04-25T03:35:47;9.40;60.10
33863;DHT22;20158;51.436;-2.742;2023-04-25T03:38:13;9.40;60.20
33863;DHT22;20158;51.436;-2.742;2023-04-25T03:40:40;9.40;60.20
33863;DHT22;20158;51.436;-2.742;2023-04-25T03:43:22;9.40;60.30
33863;DHT22;20158;51.436;-2.742;2023-04-25T03:45:54;9.30;60.20
33863;DHT22;20158;51.436;-2.742;2023-04-25T03:48:21;9.30;60.30
33863;DHT22;20158;51.436;-2.742;2023-04-25T03:50:50;9.20;60.20
33863;DHT22;20158;51.436;-2.742;2023-04-25T03:53:16;9.20;60.30
33863;DHT22;20158;51.436;-2.742;2023-04-25T03:56:11;9.20;60.30
33863;DHT22;20158;51.436;-2.742;2023-04-25T03:58:38;9.10;60.20
33863;DHT22;20158;51.436;-2.742;2023-04-25T04:01:05;9.10;60.30
33863;DHT22;20158;51.436;-2.742;2023-04-25T04:03:35;9.00;60.10
33863;DHT22;20158;51.436;-2.742;2023-04-25T04:06:04;9.00;60.30
33863;DHT22;20158;51.436;-2.742;2023-04-25T04:08:33;9.00;60.30
33863;DHT22;20158;51.436;-2.742;2023-04-25T04:11:00;8.90;60.10
33863;DHT22;20158;51.436;-2.742;2023-04-25T04:13:27;8.90;60.20
33863;DHT22;20158;51.436;-2.742;2023-04-25T04:15:54;8.90;60.30
33863;DHT22;20158;51.436;-2.742;2023-04-25T04:18:21;8.80;60.10
33863;DHT22;20158;51.436;-2.742;2023-04-25T04:20:47;8.80;60.20
33863;DHT22;20158;51.436;-2.742;2023-04-25T04:23:13;8.80;60.30
33863;DHT22;20158;51.436;-2.742;2023-04-25T04:25:40;8.80;60.90
33863;DHT22;20158;51.436;-2.742;2023-04-25T04:28:28;8.80;60.40
33863;DHT22;20158;51.436;-2.742;2023-04-25T04:31:14;8.80;60.40
33863;DHT22;20158;51.436;-2.742;2023-04-25T04:33:42;8.70;60.30
33863;DHT22;20158;51.436;-2.742;2023-04-25T04:36:08;8.70;60.30
33863;DHT22;20158;51.436;-2.742;2023-04-25T04:38:34;8.70;60.30
33863;DHT22;20158;51.436;-2.742;2023-04-25T04:41:03;8.70;60.40
33863;DHT22;20158;51.436;-2.742;2023-04-25T04:43:36;8.60;60.20
33863;DHT22;20158;51.436;-2.742;2023-04-25T04:46:02;8.60;60.30
33863;DHT22;20158;51.436;-2.742;2023-04-25T04:48:50;8.60;60.30
33863;DHT22;20158;51.436;-2.742;2023-04-25T04:51:34;8.60;60.30
33863;DHT22;20158;51.436;-2.742;2023-04-25T04:54:30;8.60;60.30
33863;DHT22;20158;51.436;-2.742;2023-04-25T04:57:10;8.60;60.40
33863;DHT22;20158;51.436;-2.742;2023-04-25T04:59:59;8.60;60.40
33863;DHT22;20158;51.436;-2.742;2023-04-25T05:02:49;8.50;60.30
33863;DHT22;20158;51.436;-2.742;2023-04-25T05:05:31;8.50;60.30
33863;DHT22;20158;51.436;-2.742;2023-04-25T05:08:14;8.50;60.40
33863;DHT22;20158;51.436;-2.742;2023-04-25T05:10:50;8.50;60.40
33863;DHT22;20158;51.436;-2.742;2023-04-25T05:13:31;8.50;60.50
33863;DHT22;20158;51.436;-2.742;2023-04-25T05:16:35;8.50;60.50
33863;DHT22;20158;51.436;-2.742;2023-04-25T05:19:34;8.50;60.50
33863;DHT22;20158;51.436;-2.742;2023-04-25T05:22:20;8.50;60.50
33863;DHT22;20158;51.436;-2.742;2023-04-25T05:25:08;8.50;60.50
33863;DHT22;20158;51.436;-2.742;2023-04-25T05:27:50;8.50;60.50
33863;DHT22;20158;51.436;-2.742;2023-04-25T05:30:35;8.50;60.50
33863;DHT22;20158;51.436;-2.742;2023-04-25T05:33:09;8.50;60.60
33863;DHT22;20158;51.436;-2.742;2023-04-25T05:35:35;8.50;60.60
33863;DHT22;20158;51.436;-2.742;2023-04-25T05:38:01;8.50;60.60
33863;DHT22;20158;51.436;-2.742;2023-04-25T05:40:59;8.50;60.70
33863;DHT22;20158;51.436;-2.742;2023-04-25T05:43:51;8.60;60.80
33863;DHT22;20158;51.436;-2.742;2023-04-25T05:46:25;8.60;60.80
33863;DHT22;20158;51.436;-2.742;2023-04-25T05:49:04;8.60;60.80
33863;DHT22;20158;51.436;-2.742;2023-04-25T05:51:40;8.70;61.00
33863;DHT22;20158;51.436;-2.742;2023-04-25T05:54:27;8.70;60.90
33863;DHT22;20158;51.436;-2.742;2023-04-25T05:56:56;8.90;61.50
33863;DHT22;20158;51.436;-2.742;2023-04-25T05:59:22;9.10;62.20
33863;DHT22;20158;51.436;-2.742;2023-04-25T06:01:48;9.30;62.60
33863;DHT22;20158;51.436;-2.742;2023-04-25T06:04:14;9.60;62.90
33863;DHT22;20158;51.436;-2.742;2023-04-25T06:06:41;9.80;62.90
33863;DHT22;20158;51.436;-2.742;2023-04-25T06:09:07;9.90;62.70
33863;DHT22;20158;51.436;-2.742;2023-04-25T06:11:33;10.10;62.70
33863;DHT22;20158;51.436;-2.742;2023-04-25T06:13:59;10.30;62.80
33863;DHT22;20158;51.436;-2.742;2023-04-25T06:16:25;10.40;62.80
33863;DHT22;20158;51.436;-2.742;2023-04-25T06:18:51;10.60;62.90
33863;DHT22;20158;51.436;-2.742;2023-04-25T06:21:17;10.80;63.00
33863;DHT22;20158;51.436;-2.742;2023-04-25T06:23:43;11.00;62.90
33863;DHT22;20158;51.436;-2.742;2023-04-25T06:26:12;11.20;62.80
33863;DHT22;20158;51.436;-2.742;2023-04-25T06:28:41;11.40;62.70
33863;DHT22;20158;51.436;-2.742;2023-04-25T06:31:08;11.80;63.00
33863;DHT22;20158;51.436;-2.742;2023-04-25T06:33:34;12.10;62.90
33863;DHT22;20158;51.436;-2.742;2023-04-25T06:36:02;12.50;63.00
33863;DHT22;20158;51.436;-2.742;2023-04-25T06:38:28;12.80;62.70
33863;DHT22;20158;51.436;-2.742;2023-04-25T06:40:56;13.10;62.50
33863;DHT22;20158;51.436;-2.742;2023-04-25T06:43:22;13.40;62.10
33863;DHT22;20158;51.436;-2.742;2023-04-25T06:46:02;13.70;61.90
33863;DHT22;20158;51.436;-2.742;2023-04-25T06:48:30;14.00;61.60
33863;DHT22;20158;51.436;-2.742;2023-04-25T06:50:58;14.30;61.40
33863;DHT22;20158;51.436;-2.742;2023-04-25T06:53:25;14.70;61.20
33863;DHT22;20158;51.436;-2.742;2023-04-25T06:55:57;15.00;60.90
33863;DHT22;20158;51.436;-2.742;2023-04-25T06:58:25;15.40;60.70
33863;DHT22;20158;51.436;-2.742;2023-04-25T07:01:18;15.70;60.10
33863;DHT22;20158;51.436;-2.742;2023-04-25T07:03:44;16.20;59.70
33863;DHT22;20158;51.436;-2.742;2023-04-25T07:06:16;16.50;59.00
33863;DHT22;20158;51.436;-2.742;2023-04-25T07:08:42;17.00;58.50
33863;DHT22;20158;51.436;-2.742;2023-04-25T07:11:08;17.30;57.70
33863;DHT22;20158;51.436;-2.742;2023-04-25T07:13:35;17.70;57.10
33863;DHT22;20158;51.436;-2.742;2023-04-25T07:16:02;18.10;56.40
33863;DHT22;20158;51.436;-2.742;2023-04-25T07:18:30;18.40;55.60
33863;DHT22;20158;51.436;-2.742;2023-04-25T07:20:56;18.70;55.00
33863;DHT22;20158;51.436;-2.742;2023-04-25T07:23:23;19.00;54.50
33863;DHT22;20158;51.436;-2.742;2023-04-25T07:25:50;19.20;54.10
33863;DHT22;20158;51.436;-2.742;2023-04-25T07:28:20;19.30;53.60
33863;DHT22;20158;51.436;-2.742;2023-04-25T07:30:47;19.40;53.40
33863;DHT22;20158;51.436;-2.742;2023-04-25T07:33:13;19.40;53.10
33863;DHT22;20158;51.436;-2.742;2023-04-25T07:35:39;19.40;52.70
33863;DHT22;20158;51.436;-2.742;2023-04-25T07:38:05;19.40;53.10
33863;DHT22;20158;51.436;-2.742;2023-04-25T07:40:32;19.20;51.90
33863;DHT22;20158;51.436;-2.742;2023-04-25T07:43:04;19.10;51.40
33863;DHT22;20158;51.436;-2.742;2023-04-25T07:45:47;19.00;51.30
33863;DHT22;20158;51.436;-2.742;2023-04-25T07:48:18;18.80;51.00
33863;DHT22;20158;51.436;-2.742;2023-04-25T07:50:45;18.70;50.50
33863;DHT22;20158;51.436;-2.742;2023-04-25T07:53:11;18.50;50.10
33863;DHT22;20158;51.436;-2.742;2023-04-25T07:55:45;18.40;49.90
33863;DHT22;20158;51.436;-2.742;2023-04-25T07:58:14;18.20;49.80
33863;DHT22;20158;51.436;-2.742;2023-04-25T08:00:43;18.00;49.60
33863;DHT22;20158;51.436;-2.742;2023-04-25T08:03:29;17.80;49.30
33863;DHT22;20158;51.436;-2.742;2023-04-25T08:05:55;17.70;49.10
33863;DHT22;20158;51.436;-2.742;2023-04-25T08:08:23;17.70;49.60
33863;DHT22;20158;51.436;-2.742;2023-04-25T08:10:49;17.60;48.70
33863;DHT22;20158;51.436;-2.742;2023-04-25T08:13:16;17.50;48.50
33863;DHT22;20158;51.436;-2.742;2023-04-25T08:15:42;17.40;48.40
33863;DHT22;20158;51.436;-2.742;2023-04-25T08:18:08;17.30;48.10
33863;DHT22;20158;51.436;-2.742;2023-04-25T08:20:34;17.10;47.80
33863;DHT22;20158;51.436;-2.742;2023-04-25T08:23:04;16.90;47.50
33863;DHT22;20158;51.436;-2.742;2023-04-25T08:26:05;16.70;47.40
33863;DHT22;20158;51.436;-2.742;2023-04-25T08:28:35;16.40;47.20
33863;DHT22;20158;51.436;-2.742;2023-04-25T08:31:02;16.20;47.10
33863;DHT22;20158;51.436;-2.742;2023-04-25T08:33:34;16.00;46.90
33863;DHT22;20158;51.436;-2.742;2023-04-25T08:36:10;15.90;46.80
33863;DHT22;20158;51.436;-2.742;2023-04-25T08:38:36;15.70;46.70
33863;DHT22;20158;51.436;-2.742;2023-04-25T08:41:06;15.60;46.60
33863;DHT22;20158;51.436;-2.742;2023-04-25T08:43:33;15.40;46.40
33863;DHT22;20158;51.436;-2.742;2023-04-25T08:46:01;15.40;46.40
33863;DHT22;20158;51.436;-2.742;2023-04-25T08:48:40;15.30;46.30
33863;DHT22;20158;51.436;-2.742;2023-04-25T08:51:07;15.20;46.20
33863;DHT22;20158;51.436;-2.742;2023-04-25T08:53:34;15.20;46.20
33863;DHT22;20158;51.436;-2.742;2023-04-25T08:56:03;15.10;46.10
33863;DHT22;20158;51.436;-2.742;2023-04-25T08:58:35;15.00;45.70
33863;DHT22;20158;51.436;-2.742;2023-04-25T09:01:03;15.00;45.70
33863;DHT22;20158;51.436;-2.742;2023-04-25T09:03:36;15.00;45.60
33863;DHT22;20158;51.436;-2.742;2023-04-25T09:06:02;15.00;45.40
33863;DHT22;20158;51.436;-2.742;2023-04-25T09:08:29;15.00;45.30
33863;DHT22;20158;51.436;-2.742;2023-04-25T09:10:56;15.00;45.20
33863;DHT22;20158;51.436;-2.742;2023-04-25T09:13:27;15.00;45.10
33863;DHT22;20158;51.436;-2.742;2023-04-25T09:16:12;14.90;44.80
33863;DHT22;20158;51.436;-2.742;2023-04-25T09:19:01;15.00;44.90
33863;DHT22;20158;51.436;-2.742;2023-04-25T09:21:27;15.00;44.80
33863;DHT22;20158;51.436;-2.742;2023-04-25T09:23:53;15.00;44.70
33863;DHT22;20158;51.436;-2.742;2023-04-25T09:26:20;15.00;44.50
33863;DHT22;20158;51.436;-2.742;2023-04-25T09:28:47;15.10;44.60
33863;DHT22;20158;51.436;-2.742;2023-04-25T09:31:23;15.10;44.50
33863;DHT22;20158;51.436;-2.742;2023-04-25T09:33:59;15.10;44.10
33863;DHT22;20158;51.436;-2.742;2023-04-25T09:36:27;15.10;43.90
33863;DHT22;20158;51.436;-2.742;2023-04-25T09:39:18;15.20;44.20
33863;DHT22;20158;51.436;-2.742;2023-04-25T09:41:54;15.20;44.30
33863;DHT22;20158;51.436;-2.742;2023-04-25T09:44:24;15.30;44.20
33863;DHT22;20158;51.436;-2.742;2023-04-25T09:46:51;15.30;43.90
33863;DHT22;20158;51.436;-2.742;2023-04-25T09:49:24;15.40;43.90
33863;DHT22;20158;51.436;-2.742;2023-04-25T09:52:02;15.40;43.80
33863;DHT22;20158;51.436;-2.742;2023-04-25T09:54:38;15.40;43.70
33863;DHT22;20158;51.436;-2.742;2023-04-25T09:59:44;15.50;43.50
33863;DHT22;20158;51.436;-2.742;2023-04-25T10:02:11;15.50;43.40
33863;DHT22;20158;51.436;-2.742;2023-04-25T10:04:41;15.50;43.30
33863;DHT22;20158;51.436;-2.742;2023-04-25T10:07:26;15.50;43.20
33863;DHT22;20158;51.436;-2.742;2023-04-25T10:09:58;15.60;43.10
33863;DHT22;20158;51.436;-2.742;2023-04-25T10:12:29;15.50;42.80
33863;DHT22;20158;51.436;-2.742;2023-04-25T10:14:58;15.60;42.80
33863;DHT22;20158;51.436;-2.742;2023-04-25T10:17:24;15.60;42.60
33863;DHT22;20158;51.436;-2.742;2023-04-25T10:19:52;15.70;42.70
33863;DHT22;20158;51.436;-2.742;2023-04-25T10:22:41;15.60;42.30
33863;DHT22;20158;51.436;-2.742;2023-04-25T10:25:08;15.70;42.30
33863;DHT22;20158;51.436;-2.742;2023-04-25T10:27:35;15.70;42.50
33863;DHT22;20158;51.436;-2.742;2023-04-25T10:30:07;15.80;42.60
33863;DHT22;20158;51.436;-2.742;2023-04-25T10:32:36;15.80;43.00
33863;DHT22;20158;51.436;-2.742;2023-04-25T10:35:23;15.80;42.30
33863;DHT22;20158;51.436;-2.742;2023-04-25T10:40:31;15.90;42.10
33863;DHT22;20158;51.436;-2.742;2023-04-25T10:45:55;16.20;42.20
33863;DHT22;20158;51.436;-2.742;2023-04-25T10:48:28;16.30;42.40
33863;DHT22;20158;51.436;-2.742;2023-04-25T10:54:04;16.40;42.30
33863;DHT22;20158;51.436;-2.742;2023-04-25T10:56:48;16.50;42.50
33863;DHT22;20158;51.436;-2.742;2023-04-25T10:59:17;16.60;42.60
33863;DHT22;20158;51.436;-2.742;2023-04-25T11:01:45;16.70;42.70
33863;DHT22;20158;51.436;-2.742;2023-04-25T11:04:44;16.90;42.90
33863;DHT22;20158;51.436;-2.742;2023-04-25T11:07:17;17.00;42.50
33863;DHT22;20158;51.436;-2.742;2023-04-25T11:10:05;17.20;42.80
33863;DHT22;20158;51.436;-2.742;2023-04-25T11:12:32;17.20;42.70
33863;DHT22;20158;51.436;-2.742;2023-04-25T11:15:07;17.20;42.50
33863;DHT22;20158;51.436;-2.742;2023-04-25T11:17:34;17.30;42.50
33863;DHT22;20158;51.436;-2.742;2023-04-25T11:20:00;17.30;42.40
33863;DHT22;20158;51.436;-2.742;2023-04-25T11:22:27;17.50;42.50
33863;DHT22;20158;51.436;-2.742;2023-04-25T11:24:53;17.50;42.20
33863;DHT22;20158;51.436;-2.742;2023-04-25T11:27:21;17.50;42.20
33863;DHT22;20158;51.436;-2.742;2023-04-25T11:29:47;17.50;42.10
33863;DHT22;20158;51.436;-2.742;2023-04-25T11:32:17;17.50;42.00
33863;DHT22;20158;51.436;-2.742;2023-04-25T11:34:44;17.60;42.00
33863;DHT22;20158;51.436;-2.742;2023-04-25T11:37:11;17.70;41.80
33863;DHT22;20158;51.436;-2.742;2023-04-25T11:39:43;17.90;41.90
33863;DHT22;20158;51.436;-2.742;2023-04-25T11:42:10;17.90;41.70
33863;DHT22;20158;51.436;-2.742;2023-04-25T11:44:38;18.00;41.80
33863;DHT22;20158;51.436;-2.742;2023-04-25T11:47:05;18.00;41.50
33863;DHT22;20158;51.436;-2.742;2023-04-25T11:49:31;18.00;41.60
33863;DHT22;20158;51.436;-2.742;2023-04-25T11:51:58;18.00;41.60
33863;DHT22;20158;51.436;-2.742;2023-04-25T11:54:23;18.00;41.40
33863;DHT22;20158;51.436;-2.742;2023-04-25T11:56:50;18.00;41.30
33863;DHT22;20158;51.436;-2.742;2023-04-25T11:59:16;18.00;41.50
33863;DHT22;20158;51.436;-2.742;2023-04-25T12:01:49;18.10;42.40
33863;DHT22;20158;51.436;-2.742;2023-04-25T12:04:24;18.30;43.40
33863;DHT22;20158;51.436;-2.742;2023-04-25T12:06:52;18.40;43.80
33863;DHT22;20158;51.436;-2.742;2023-04-25T12:09:28;18.70;44.30
33863;DHT22;20158;51.436;-2.742;2023-04-25T12:11:55;18.80;44.60
33863;DHT22;20158;51.436;-2.742;2023-04-25T12:14:32;18.80;44.60
33863;DHT22;20158;51.436;-2.742;2023-04-25T12:17:00;18.90;44.90
33863;DHT22;20158;51.436;-2.742;2023-04-25T12:19:35;18.90;44.90
33863;DHT22;20158;51.436;-2.742;2023-04-25T12:22:07;19.00;45.20
33863;DHT22;20158;51.436;-2.742;2023-04-25T12:24:45;19.20;45.50
33863;DHT22;20158;51.436;-2.742;2023-04-25T12:27:15;19.30;45.50
33863;DHT22;20158;51.436;-2.742;2023-04-25T12:29:53;19.60;45.60
33863;DHT22;20158;51.436;-2.742;2023-04-25T12:32:19;20.00;45.40
33863;DHT22;20158;51.436;-2.742;2023-04-25T12:34:45;20.30;45.50
33863;DHT22;20158;51.436;-2.742;2023-04-25T12:37:11;20.30;45.20
33863;DHT22;20158;51.436;-2.742;2023-04-25T12:39:37;20.30;45.10
33863;DHT22;20158;51.436;-2.742;2023-04-25T12:42:03;20.40;45.50
33863;DHT22;20158;51.436;-2.742;2023-04-25T12:44:29;20.50;45.60
33863;DHT22;20158;51.436;-2.742;2023-04-25T12:46:55;20.70;45.80
33863;DHT22;20158;51.436;-2.742;2023-04-25T12:49:21;21.10;46.10
33863;DHT22;20158;51.436;-2.742;2023-04-25T12:51:47;21.40;46.10
33863;DHT22;20158;51.436;-2.742;2023-04-25T12:54:13;21.60;45.70
33863;DHT22;20158;51.436;-2.742;2023-04-25T12:56:41;21.60;45.20
33863;DHT22;20158;51.436;-2.742;2023-04-25T12:59:07;21.50;44.70
33863;DHT22;20158;51.436;-2.742;2023-04-25T13:01:33;21.50;44.60
33863;DHT22;20158;51.436;-2.742;2023-04-25T13:03:59;21.40;44.30
33863;DHT22;20158;51.436;-2.742;2023-04-25T13:06:25;21.20;44.70
33863;DHT22;20158;51.436;-2.742;2023-04-25T13:08:51;21.10;44.10
33863;DHT22;20158;51.436;-2.742;2023-04-25T13:11:17;21.00;44.00
33863;DHT22;20158;51.436;-2.742;2023-04-25T13:13:44;20.90;43.70
33863;DHT22;20158;51.436;-2.742;2023-04-25T13:16:10;20.70;43.20
33863;DHT22;20158;51.436;-2.742;2023-04-25T13:18:36;20.70;43.20
33863;DHT22;20158;51.436;-2.742;2023-04-25T13:21:02;20.60;42.90
33863;DHT22;20158;51.436;-2.742;2023-04-25T13:23:29;20.50;42.70
33863;DHT22;20158;51.436;-2.742;2023-04-25T13:25:55;20.50;42.60
33863;DHT22;20158;51.436;-2.742;2023-04-25T13:28:24;20.50;42.40
33863;DHT22;20158;51.436;-2.742;2023-04-25T13:30:50;20.40;42.10
33863;DHT22;20158;51.436;-2.742;2023-04-25T13:33:17;20.50;42.20
33863;DHT22;20158;51.436;-2.742;2023-04-25T13:35:43;20.40;42.50
33863;DHT22;20158;51.436;-2.742;2023-04-25T13:38:12;20.50;42.00
33863;DHT22;20158;51.436;-2.742;2023-04-25T13:40:39;20.50;41.90
33863;DHT22;20158;51.436;-2.742;2023-04-25T13:43:05;20.60;41.70
33863;DHT22;20158;51.436;-2.742;2023-04-25T13:45:32;20.70;41.50
33863;DHT22;20158;51.436;-2.742;2023-04-25T13:47:58;20.70;41.30
33863;DHT22;20158;51.436;-2.742;2023-04-25T13:50:24;20.80;41.30
33863;DHT22;20158;51.436;-2.742;2023-04-25T13:52:50;20.90;41.20
33863;DHT22;20158;51.436;-2.742;2023-04-25T13:55:15;21.00;41.20
33863;DHT22;20158;51.436;-2.742;2023-04-25T13:57:41;21.00;41.10
33863;DHT22;20158;51.436;-2.742;2023-04-25T14:00:08;21.10;41.40
33863;DHT22;20158;51.436;-2.742;2023-04-25T14:02:35;21.10;41.60
33863;DHT22;20158;51.436;-2.742;2023-04-25T14:05:02;21.20;42.00
33863;DHT22;20158;51.436;-2.742;2023-04-25T14:07:28;21.20;42.30
33863;DHT22;20158;51.436;-2.742;2023-04-25T14:09:54;21.30;42.60
33863;DHT22;20158;51.436;-2.742;2023-04-25T14:12:22;21.40;42.90
33863;DHT22;20158;51.436;-2.742;2023-04-25T14:14:47;21.40;42.90
33863;DHT22;20158;51.436;-2.742;2023-04-25T14:17:13;21.40;42.90
33863;DHT22;20158;51.436;-2.742;2023-04-25T14:19:39;21.50;42.90
33863;DHT22;20158;51.436;-2.742;2023-04-25T14:22:09;21.60;43.00
33863;DHT22;20158;51.436;-2.742;2023-04-25T14:24:35;21.70;43.20
33863;DHT22;20158;51.436;-2.742;2023-04-25T14:27:01;21.80;43.50
33863;DHT22;20158;51.436;-2.742;2023-04-25T14:29:28;21.90;43.60
33863;DHT22;20158;51.436;-2.742;2023-04-25T14:31:54;22.10;43.70
33863;DHT22;20158;51.436;-2.742;2023-04-25T14:34:20;22.10;43.40
33863;DHT22;20158;51.436;-2.742;2023-04-25T14:36:46;22.10;43.30
33863;DHT22;20158;51.436;-2.742;2023-04-25T14:39:12;22.10;43.30
33863;DHT22;20158;51.436;-2.742;2023-04-25T14:41:39;22.10;43.20
33863;DHT22;20158;51.436;-2.742;2023-04-25T14:44:05;22.10;43.40
33863;DHT22;20158;51.436;-2.742;2023-04-25T14:46:31;22.10;43.40
33863;DHT22;20158;51.436;-2.742;2023-04-25T14:48:57;22.10;43.40
33863;DHT22;20158;51.436;-2.742;2023-04-25T14:51:23;22.10;43.20
33863;DHT22;20158;51.436;-2.742;2023-04-25T14:53:49;22.10;43.20
33863;DHT22;20158;51.436;-2.742;2023-04-25T14:56:16;22.10;43.10
33863;DHT22;20158;51.436;-2.742;2023-04-25T14:58:42;22.10;42.80
33863;DHT22;20158;51.436;-2.742;2023-04-25T15:01:08;22.10;42.80
33863;DHT22;20158;51.436;-2.742;2023-04-25T15:03:34;22.10;42.80
33863;DHT22;20158;51.436;-2.742;2023-04-25T15:06:00;22.10;42.80
33863;DHT22;20158;51.436;-2.742;2023-04-25T15:08:26;22.10;42.80
33863;DHT22;20158;51.436;-2.742;2023-04-25T15:10:52;22.10;42.60
33863;DHT22;20158;51.436;-2.742;2023-04-25T15:13:18;22.20;42.70
33863;DHT22;20158;51.436;-2.742;2023-04-25T15:15:44;22.20;42.60
33863;DHT22;20158;51.436;-2.742;2023-04-25T15:18:20;22.30;42.80
33863;DHT22;20158;51.436;-2.742;2023-04-25T15:20:48;22.40;42.60
33863;DHT22;20158;51.436;-2.742;2023-04-25T15:23:14;22.80;42.70
33863;DHT22;20158;51.436;-2.742;2023-04-25T15:25:40;23.30;43.00
33863;DHT22;20158;51.436;-2.742;2023-04-25T15:28:06;23.80;43.30
33863;DHT22;20158;51.436;-2.742;2023-04-25T15:30:32;24.30;43.90
33863;DHT22;20158;51.436;-2.742;2023-04-25T15:32:58;24.80;44.40
33863;DHT22;20158;51.436;-2.742;2023-04-25T15:35:24;25.30;44.30
33863;DHT22;20158;51.436;-2.742;2023-04-25T15:37:50;25.50;43.90
33863;DHT22;20158;51.436;-2.742;2023-04-25T15:40:17;25.60;43.60
33863;DHT22;20158;51.436;-2.742;2023-04-25T15:42:45;25.60;43.40
33863;DHT22;20158;51.436;-2.742;2023-04-25T15:45:17;25.50;42.90
33863;DHT22;20158;51.436;-2.742;2023-04-25T15:47:44;25.30;42.60